CYEG

Edmonton International Airport

Edmonton, Alberta, Canada
METAR CYEG 191100Z 27008KT 20SM FEW090 SCT170 BKN210 M03/M06 A2961 RMK AC2AC1CI3 SLP066
Observed Flight Rules
Dec-19 @ 11:00 UTC (40 minutes ago) Visual Flight Rules
Wind Visibility Clouds
270° at 8 knots 20 miles
  • Few at 9,000' AGL
  • Scattered at 17,000' AGL
  • Broken at 21,000' AGL
Temperatures Readings
Current -3°C / 27°F
Dewpoint -6°C / 21°F
Humidity 80%
Altimeter 29.61" Hg
Pressure 1006.6 hPa
Elevation 723
METAR CYEG 191100Z 27008KT 20SM FEW090 SCT170 BKN210 M03/M06 A2961 RMK AC2AC1CI3 SLP066
Observed Flight Rules
Dec-19 @ 11:00 UTC
(40 minutes ago)
VFR
Wind Visibility
270° at 8 knots 20 miles
Clouds
  • Few at 9,000' AGL
  • Scattered at 17,000' AGL
  • Broken at 21,000' AGL
Temperature Dewpoint
-3°C / 27°F -6°C / 21°F
Humidity Altimeter Pressure
80% 29.61" Hg 1006.6 hPa